This is the latest recevied weather packets stored in our database for station/object E22ZMG-2. If no packets are shown the sender has not sent any weather packets the latest 10 day(s).
| Time | Temp. | Humidity | Pressure | Rain* | Wind** | Luminosity | Snow |
|---|---|---|---|---|---|---|---|
| 1778065753 | 31.11° C | 66% | 923 hPa | - | - | 0 W/m² | - |
| 1778065129 | 31.11° C | 67% | 923 hPa | - | - | 0 W/m² | - |
| 1778064621 | 31.11° C | 66% | 923 hPa | - | - | 0 W/m² | - |
| 1778063998 | 30.56° C | 67% | 923 hPa | - | - | 0 W/m² | - |
| 1778041432 | 31.67° C | 55% | 927 hPa | - | - | 0 W/m² | - |
| 1778040808 | 32.22° C | 54% | 927 hPa | - | - | 0 W/m² | - |
| 1778040184 | 32.22° C | 55% | 927 hPa | - | - | 0 W/m² | - |
| 1778039560 | 31.67° C | 55% | 927 hPa | - | - | 0 W/m² | - |
| 1778038936 | 31.11° C | 55% | 927 hPa | - | - | 0 W/m² | - |
| 1778038312 | 31.11° C | 56% | 927 hPa | - | - | 0 W/m² | - |
| 1778037687 | 31.11° C | 56% | 927 hPa | - | - | 0 W/m² | - |
| 1778037063 | 31.11° C | 57% | 927 hPa | - | - | 0 W/m² | - |
| 1778036439 | 30° C | 59% | 927 hPa | - | - | 0 W/m² | - |
| 1778035815 | 30° C | 59% | 927 hPa | - | - | 0 W/m² | - |
| 1778035191 | 30° C | 59% | 927 hPa | - | - | 0 W/m² | - |
| 1778034567 | 30.56° C | 58% | 927 hPa | - | - | 0 W/m² | - |
| 1778033943 | 29.44° C | 60% | 927 hPa | - | - | 0 W/m² | - |
| 1778033319 | 29.44° C | 62% | 927 hPa | - | - | 0 W/m² | - |
| 1778032695 | 29.44° C | 62% | 927 hPa | - | - | 0 W/m² | - |
| 1778032071 | 28.89° C | 63% | 927 hPa | - | - | 0 W/m² | - |
| 1778031447 | 29.44° C | 62% | 927 hPa | - | - | 0 W/m² | - |
| 1778030823 | 29.44° C | 58% | 927 hPa | - | - | 0 W/m² | - |
| 1778030198 | 29.44° C | 61% | 927 hPa | - | - | 0 W/m² | - |
| 1778029574 | 28.89° C | 62% | 927 hPa | - | - | 0 W/m² | - |
| 1778028950 | 28.89° C | 62% | 927 hPa | - | - | 0 W/m² | - |
* Rain since midnight (hover to see other rain measurements)
** Current wind speed in m/s (hover to see current wind gust speed)